sensor_id;sensor_type;location;lat;lon;timestamp;temperature;humidity
11229;DHT22;5671;47.936;8.716;2022-10-16T03:34:34;10.10;89.70
11229;DHT22;5671;47.936;8.716;2022-10-16T03:37:18;10.00;89.40
11229;DHT22;5671;47.936;8.716;2022-10-16T05:39:52;9.90;90.10
11229;DHT22;5671;47.936;8.716;2022-10-16T05:42:57;9.90;90.00
11229;DHT22;5671;47.936;8.716;2022-10-16T05:45:26;9.90;89.90
11229;DHT22;5671;47.936;8.716;2022-10-16T05:47:59;9.90;89.90
11229;DHT22;5671;47.936;8.716;2022-10-16T05:50:47;9.90;90.40
11229;DHT22;5671;47.936;8.716;2022-10-16T06:07:05;9.90;90.60
11229;DHT22;5671;47.936;8.716;2022-10-16T06:09:33;9.90;90.30
11229;DHT22;5671;47.936;8.716;2022-10-16T06:56:09;10.20;91.30
11229;DHT22;5671;47.936;8.716;2022-10-16T07:05:17;10.40;91.70
11229;DHT22;5671;47.936;8.716;2022-10-16T07:25:26;10.60;91.50
11229;DHT22;5671;47.936;8.716;2022-10-16T07:35:00;10.80;91.40
11229;DHT22;5671;47.936;8.716;2022-10-16T07:38:20;10.90;91.70
11229;DHT22;5671;47.936;8.716;2022-10-16T07:51:31;11.20;91.70
11229;DHT22;5671;47.936;8.716;2022-10-16T07:54:22;11.20;91.60
11229;DHT22;5671;47.936;8.716;2022-10-16T08:03:32;11.40;91.40
11229;DHT22;5671;47.936;8.716;2022-10-16T10:53:16;19.60;69.10
11229;DHT22;5671;47.936;8.716;2022-10-16T11:18:59;19.30;70.10
11229;DHT22;5671;47.936;8.716;2022-10-16T11:21:32;19.40;70.30
11229;DHT22;5671;47.936;8.716;2022-10-16T11:43:43;19.80;69.40
11229;DHT22;5671;47.936;8.716;2022-10-16T11:46:51;19.90;68.80
11229;DHT22;5671;47.936;8.716;2022-10-16T11:49:49;19.90;69.20
11229;DHT22;5671;47.936;8.716;2022-10-16T12:06:31;21.50;64.10
11229;DHT22;5671;47.936;8.716;2022-10-16T12:09:04;21.80;63.70
11229;DHT22;5671;47.936;8.716;2022-10-16T12:11:34;22.10;64.20
11229;DHT22;5671;47.936;8.716;2022-10-16T12:17:41;22.60;60.50
11229;DHT22;5671;47.936;8.716;2022-10-16T12:20:43;22.80;61.30
11229;DHT22;5671;47.936;8.716;2022-10-16T14:04:25;24.80;50.40
11229;DHT22;5671;47.936;8.716;2022-10-16T14:08:58;24.60;51.60
11229;DHT22;5671;47.936;8.716;2022-10-16T14:10:59;24.40;49.90
11229;DHT22;5671;47.936;8.716;2022-10-16T14:13:34;24.10;52.70
11229;DHT22;5671;47.936;8.716;2022-10-16T14:16:18;24.00;53.20
11229;DHT22;5671;47.936;8.716;2022-10-16T14:19:02;24.10;52.90
11229;DHT22;5671;47.936;8.716;2022-10-16T14:21:39;24.10;52.10
11229;DHT22;5671;47.936;8.716;2022-10-16T14:24:32;24.20;52.70
11229;DHT22;5671;47.936;8.716;2022-10-16T14:27:20;24.10;52.90
11229;DHT22;5671;47.936;8.716;2022-10-16T14:30:14;24.10;52.90
11229;DHT22;5671;47.936;8.716;2022-10-16T14:32:55;24.00;54.00
11229;DHT22;5671;47.936;8.716;2022-10-16T14:35:30;23.80;53.40
11229;DHT22;5671;47.936;8.716;2022-10-16T14:38:02;23.60;52.00
11229;DHT22;5671;47.936;8.716;2022-10-16T14:40:31;23.50;54.00
11229;DHT22;5671;47.936;8.716;2022-10-16T14:43:01;23.30;54.80
11229;DHT22;5671;47.936;8.716;2022-10-16T14:45:34;23.20;55.40
11229;DHT22;5671;47.936;8.716;2022-10-16T14:48:04;23.00;54.80
11229;DHT22;5671;47.936;8.716;2022-10-16T14:50:33;22.80;54.90
11229;DHT22;5671;47.936;8.716;2022-10-16T14:53:07;22.60;54.70
11229;DHT22;5671;47.936;8.716;2022-10-16T14:55:36;22.50;57.40
11229;DHT22;5671;47.936;8.716;2022-10-16T14:58:04;22.30;56.60
11229;DHT22;5671;47.936;8.716;2022-10-16T15:00:31;22.20;58.30
11229;DHT22;5671;47.936;8.716;2022-10-16T15:02:58;22.10;57.90
11229;DHT22;5671;47.936;8.716;2022-10-16T15:05:27;22.00;57.60
11229;DHT22;5671;47.936;8.716;2022-10-16T15:07:54;21.90;59.10
11229;DHT22;5671;47.936;8.716;2022-10-16T15:10:46;21.80;61.00
11229;DHT22;5671;47.936;8.716;2022-10-16T15:13:14;21.70;60.20
11229;DHT22;5671;47.936;8.716;2022-10-16T15:18:39;21.40;62.10
11229;DHT22;5671;47.936;8.716;2022-10-16T15:21:06;21.30;63.30
11229;DHT22;5671;47.936;8.716;2022-10-16T15:23:33;21.20;63.20
11229;DHT22;5671;47.936;8.716;2022-10-16T15:26:02;21.10;63.60
11229;DHT22;5671;47.936;8.716;2022-10-16T15:28:31;21.00;61.80
11229;DHT22;5671;47.936;8.716;2022-10-16T15:31:01;20.80;62.80
11229;DHT22;5671;47.936;8.716;2022-10-16T15:34:03;20.70;63.50
11229;DHT22;5671;47.936;8.716;2022-10-16T15:36:32;20.60;62.60
11229;DHT22;5671;47.936;8.716;2022-10-16T15:39:02;20.50;64.70
11229;DHT22;5671;47.936;8.716;2022-10-16T15:41:31;20.40;64.80
11229;DHT22;5671;47.936;8.716;2022-10-16T15:44:07;20.30;64.30
11229;DHT22;5671;47.936;8.716;2022-10-16T15:46:37;20.20;63.00
11229;DHT22;5671;47.936;8.716;2022-10-16T15:49:09;20.10;63.50
11229;DHT22;5671;47.936;8.716;2022-10-16T15:51:38;19.90;64.10
11229;DHT22;5671;47.936;8.716;2022-10-16T15:54:06;19.90;65.30
11229;DHT22;5671;47.936;8.716;2022-10-16T15:56:35;19.80;66.00
11229;DHT22;5671;47.936;8.716;2022-10-16T15:59:05;19.60;67.00
11229;DHT22;5671;47.936;8.716;2022-10-16T16:01:33;19.60;68.20
11229;DHT22;5671;47.936;8.716;2022-10-16T16:04:00;19.50;68.30
11229;DHT22;5671;47.936;8.716;2022-10-16T16:06:27;19.40;68.90
11229;DHT22;5671;47.936;8.716;2022-10-16T16:08:55;19.30;68.80
11229;DHT22;5671;47.936;8.716;2022-10-16T16:11:23;19.20;68.60
11229;DHT22;5671;47.936;8.716;2022-10-16T16:13:54;19.10;68.80
11229;DHT22;5671;47.936;8.716;2022-10-16T16:16:23;18.90;69.40
11229;DHT22;5671;47.936;8.716;2022-10-16T16:19:03;18.80;69.90
11229;DHT22;5671;47.936;8.716;2022-10-16T16:21:53;18.70;69.60
11229;DHT22;5671;47.936;8.716;2022-10-16T16:24:26;18.50;70.40
11229;DHT22;5671;47.936;8.716;2022-10-16T16:27:04;18.40;71.10
11229;DHT22;5671;47.936;8.716;2022-10-16T16:29:32;18.20;71.30
11229;DHT22;5671;47.936;8.716;2022-10-16T16:32:01;18.10;71.90
11229;DHT22;5671;47.936;8.716;2022-10-16T16:34:28;18.00;71.50
11229;DHT22;5671;47.936;8.716;2022-10-16T16:36:56;17.90;72.30
11229;DHT22;5671;47.936;8.716;2022-10-16T16:39:23;17.70;72.30
11229;DHT22;5671;47.936;8.716;2022-10-16T16:41:56;17.60;72.90
11229;DHT22;5671;47.936;8.716;2022-10-16T16:44:26;17.50;72.50
11229;DHT22;5671;47.936;8.716;2022-10-16T16:47:25;17.40;73.10
11229;DHT22;5671;47.936;8.716;2022-10-16T16:49:45;17.30;72.70
11229;DHT22;5671;47.936;8.716;2022-10-16T16:52:35;17.10;73.00
11229;DHT22;5671;47.936;8.716;2022-10-16T16:58:22;16.80;73.40
11229;DHT22;5671;47.936;8.716;2022-10-16T17:01:01;16.70;74.50
11229;DHT22;5671;47.936;8.716;2022-10-16T17:03:37;16.50;75.10
11229;DHT22;5671;47.936;8.716;2022-10-16T17:06:06;16.40;75.20
11229;DHT22;5671;47.936;8.716;2022-10-16T17:08:42;16.30;75.10
11229;DHT22;5671;47.936;8.716;2022-10-16T17:11:12;16.20;75.40
11229;DHT22;5671;47.936;8.716;2022-10-16T17:13:40;16.10;75.30
11229;DHT22;5671;47.936;8.716;2022-10-16T17:16:08;16.00;75.20
11229;DHT22;5671;47.936;8.716;2022-10-16T17:18:36;15.90;75.30
11229;DHT22;5671;47.936;8.716;2022-10-16T17:21:06;15.80;75.90
11229;DHT22;5671;47.936;8.716;2022-10-16T17:23:39;15.70;75.60
11229;DHT22;5671;47.936;8.716;2022-10-16T17:26:30;15.60;75.60
11229;DHT22;5671;47.936;8.716;2022-10-16T17:29:44;15.50;76.00
11229;DHT22;5671;47.936;8.716;2022-10-16T17:32:11;15.40;76.50
11229;DHT22;5671;47.936;8.716;2022-10-16T17:34:40;15.30;76.60
11229;DHT22;5671;47.936;8.716;2022-10-16T17:37:07;15.20;77.00
11229;DHT22;5671;47.936;8.716;2022-10-16T17:39:39;15.10;77.50
11229;DHT22;5671;47.936;8.716;2022-10-16T17:42:07;15.00;77.00
11229;DHT22;5671;47.936;8.716;2022-10-16T17:44:37;14.90;77.30
11229;DHT22;5671;47.936;8.716;2022-10-16T17:47:04;14.80;77.10
11229;DHT22;5671;47.936;8.716;2022-10-16T17:49:34;14.80;77.00
11229;DHT22;5671;47.936;8.716;2022-10-16T17:52:05;14.70;76.90
11229;DHT22;5671;47.936;8.716;2022-10-16T17:54:32;14.60;77.30
11229;DHT22;5671;47.936;8.716;2022-10-16T17:56:59;14.50;77.20
11229;DHT22;5671;47.936;8.716;2022-10-16T17:59:26;14.40;77.20
11229;DHT22;5671;47.936;8.716;2022-10-16T18:01:56;14.30;77.20
11229;DHT22;5671;47.936;8.716;2022-10-16T18:04:26;14.30;77.80
11229;DHT22;5671;47.936;8.716;2022-10-16T18:06:53;14.20;78.00
11229;DHT22;5671;47.936;8.716;2022-10-16T18:09:26;14.10;78.80
11229;DHT22;5671;47.936;8.716;2022-10-16T18:11:53;14.00;78.90
11229;DHT22;5671;47.936;8.716;2022-10-16T18:14:25;13.90;79.70
11229;DHT22;5671;47.936;8.716;2022-10-16T18:16:54;13.80;79.60
11229;DHT22;5671;47.936;8.716;2022-10-16T18:19:22;13.80;80.70
11229;DHT22;5671;47.936;8.716;2022-10-16T18:21:49;13.70;80.40
11229;DHT22;5671;47.936;8.716;2022-10-16T18:24:20;13.60;80.40
11229;DHT22;5671;47.936;8.716;2022-10-16T18:26:51;13.50;79.80
11229;DHT22;5671;47.936;8.716;2022-10-16T18:29:24;13.50;79.20
11229;DHT22;5671;47.936;8.716;2022-10-16T18:31:55;13.40;80.20
11229;DHT22;5671;47.936;8.716;2022-10-16T18:34:22;13.30;80.00
11229;DHT22;5671;47.936;8.716;2022-10-16T18:36:51;13.20;80.00
11229;DHT22;5671;47.936;8.716;2022-10-16T18:39:19;13.20;80.50
11229;DHT22;5671;47.936;8.716;2022-10-16T18:41:50;13.10;80.40
11229;DHT22;5671;47.936;8.716;2022-10-16T18:44:19;13.10;80.80
11229;DHT22;5671;47.936;8.716;2022-10-16T18:46:46;13.00;80.40
11229;DHT22;5671;47.936;8.716;2022-10-16T18:49:13;12.90;80.40
11229;DHT22;5671;47.936;8.716;2022-10-16T18:51:40;12.90;81.10
11229;DHT22;5671;47.936;8.716;2022-10-16T18:54:10;12.80;81.30
11229;DHT22;5671;47.936;8.716;2022-10-16T18:56:38;12.80;80.70
11229;DHT22;5671;47.936;8.716;2022-10-16T18:59:07;12.70;80.70
11229;DHT22;5671;47.936;8.716;2022-10-16T19:01:38;12.70;81.00
11229;DHT22;5671;47.936;8.716;2022-10-16T19:04:08;12.60;80.80
11229;DHT22;5671;47.936;8.716;2022-10-16T19:06:37;12.50;80.50
11229;DHT22;5671;47.936;8.716;2022-10-16T19:09:05;12.50;80.90
11229;DHT22;5671;47.936;8.716;2022-10-16T19:11:35;12.40;80.70
11229;DHT22;5671;47.936;8.716;2022-10-16T19:14:02;12.40;80.90
11229;DHT22;5671;47.936;8.716;2022-10-16T19:16:33;12.30;81.30
11229;DHT22;5671;47.936;8.716;2022-10-16T19:19:13;12.30;81.40
11229;DHT22;5671;47.936;8.716;2022-10-16T19:21:43;12.20;81.90
11229;DHT22;5671;47.936;8.716;2022-10-16T19:24:19;12.20;81.60
11229;DHT22;5671;47.936;8.716;2022-10-16T19:26:47;12.20;82.00
11229;DHT22;5671;47.936;8.716;2022-10-16T19:29:17;12.10;82.20
11229;DHT22;5671;47.936;8.716;2022-10-16T19:31:46;12.00;81.50
11229;DHT22;5671;47.936;8.716;2022-10-16T19:34:13;12.00;82.10
11229;DHT22;5671;47.936;8.716;2022-10-16T19:36:40;12.00;82.30
11229;DHT22;5671;47.936;8.716;2022-10-16T19:39:10;11.90;82.70
11229;DHT22;5671;47.936;8.716;2022-10-16T19:41:42;11.90;82.50
11229;DHT22;5671;47.936;8.716;2022-10-16T19:44:13;11.80;82.10
11229;DHT22;5671;47.936;8.716;2022-10-16T19:46:42;11.80;83.40
11229;DHT22;5671;47.936;8.716;2022-10-16T19:49:12;11.80;83.00
11229;DHT22;5671;47.936;8.716;2022-10-16T19:51:49;11.80;82.70
11229;DHT22;5671;47.936;8.716;2022-10-16T19:54:17;11.70;82.50
11229;DHT22;5671;47.936;8.716;2022-10-16T19:56:44;11.70;82.70
11229;DHT22;5671;47.936;8.716;2022-10-16T19:59:12;11.70;82.70
11229;DHT22;5671;47.936;8.716;2022-10-16T20:01:41;11.60;83.10
11229;DHT22;5671;47.936;8.716;2022-10-16T20:04:10;11.60;83.00
11229;DHT22;5671;47.936;8.716;2022-10-16T20:06:38;11.60;82.80
11229;DHT22;5671;47.936;8.716;2022-10-16T20:09:05;11.50;83.10
11229;DHT22;5671;47.936;8.716;2022-10-16T20:11:35;11.50;82.60
11229;DHT22;5671;47.936;8.716;2022-10-16T20:14:05;11.40;83.00
11229;DHT22;5671;47.936;8.716;2022-10-16T20:23:33;11.30;83.10
11229;DHT22;5671;47.936;8.716;2022-10-16T21:02:10;10.70;84.10
11229;DHT22;5671;47.936;8.716;2022-10-16T21:04:39;10.70;83.50
11229;DHT22;5671;47.936;8.716;2022-10-16T21:07:12;10.70;83.40
11229;DHT22;5671;47.936;8.716;2022-10-16T21:09:42;10.60;83.90
11229;DHT22;5671;47.936;8.716;2022-10-16T21:12:09;10.60;83.70
11229;DHT22;5671;47.936;8.716;2022-10-16T21:14:38;10.60;83.70
11229;DHT22;5671;47.936;8.716;2022-10-16T21:17:05;10.50;83.20
11229;DHT22;5671;47.936;8.716;2022-10-16T21:19:34;10.50;83.40
11229;DHT22;5671;47.936;8.716;2022-10-16T21:22:10;10.50;83.30
11229;DHT22;5671;47.936;8.716;2022-10-16T21:24:37;10.40;83.40
11229;DHT22;5671;47.936;8.716;2022-10-16T21:27:06;10.40;84.30
11229;DHT22;5671;47.936;8.716;2022-10-16T21:29:33;10.30;84.10
11229;DHT22;5671;47.936;8.716;2022-10-16T21:32:00;10.30;84.20
11229;DHT22;5671;47.936;8.716;2022-10-16T21:34:27;10.30;84.40
11229;DHT22;5671;47.936;8.716;2022-10-16T21:36:56;10.30;83.80
11229;DHT22;5671;47.936;8.716;2022-10-16T21:39:23;10.20;84.00
11229;DHT22;5671;47.936;8.716;2022-10-16T21:41:52;10.20;83.90
11229;DHT22;5671;47.936;8.716;2022-10-16T21:44:19;10.20;84.10
11229;DHT22;5671;47.936;8.716;2022-10-16T21:46:46;10.10;83.90
11229;DHT22;5671;47.936;8.716;2022-10-16T21:49:16;10.10;84.20
11229;DHT22;5671;47.936;8.716;2022-10-16T21:51:45;10.10;84.20
11229;DHT22;5671;47.936;8.716;2022-10-16T21:54:17;10.10;84.40
11229;DHT22;5671;47.936;8.716;2022-10-16T21:56:44;10.10;85.00
11229;DHT22;5671;47.936;8.716;2022-10-16T21:59:12;10.10;84.70
11229;DHT22;5671;47.936;8.716;2022-10-16T22:01:40;10.00;85.20
11229;DHT22;5671;47.936;8.716;2022-10-16T22:04:08;10.00;85.10
11229;DHT22;5671;47.936;8.716;2022-10-16T22:06:35;10.00;85.00
11229;DHT22;5671;47.936;8.716;2022-10-16T22:09:03;10.00;84.50
11229;DHT22;5671;47.936;8.716;2022-10-16T22:11:33;10.00;84.70
11229;DHT22;5671;47.936;8.716;2022-10-16T22:14:03;9.90;84.50
11229;DHT22;5671;47.936;8.716;2022-10-16T22:16:30;9.90;84.60
11229;DHT22;5671;47.936;8.716;2022-10-16T22:18:58;9.90;84.40
11229;DHT22;5671;47.936;8.716;2022-10-16T22:21:28;9.80;84.20
11229;DHT22;5671;47.936;8.716;2022-10-16T22:23:58;9.80;84.00
11229;DHT22;5671;47.936;8.716;2022-10-16T22:26:25;9.80;84.00
11229;DHT22;5671;47.936;8.716;2022-10-16T22:28:54;9.80;83.70
11229;DHT22;5671;47.936;8.716;2022-10-16T22:31:22;9.70;84.10
11229;DHT22;5671;47.936;8.716;2022-10-16T22:33:53;9.70;84.20
11229;DHT22;5671;47.936;8.716;2022-10-16T22:36:21;9.70;84.30
11229;DHT22;5671;47.936;8.716;2022-10-16T22:38:48;9.60;84.40
11229;DHT22;5671;47.936;8.716;2022-10-16T22:41:15;9.60;84.50
11229;DHT22;5671;47.936;8.716;2022-10-16T22:43:44;9.60;84.30
11229;DHT22;5671;47.936;8.716;2022-10-16T22:46:28;9.60;84.70
11229;DHT22;5671;47.936;8.716;2022-10-16T22:48:56;9.50;84.30
11229;DHT22;5671;47.936;8.716;2022-10-16T22:51:23;9.50;84.00
11229;DHT22;5671;47.936;8.716;2022-10-16T22:53:50;9.40;83.90
11229;DHT22;5671;47.936;8.716;2022-10-16T22:56:19;9.40;83.80
11229;DHT22;5671;47.936;8.716;2022-10-16T22:58:47;9.30;84.00
11229;DHT22;5671;47.936;8.716;2022-10-16T23:01:17;9.30;84.20
11229;DHT22;5671;47.936;8.716;2022-10-16T23:03:46;9.30;84.50
11229;DHT22;5671;47.936;8.716;2022-10-16T23:06:13;9.20;84.60
11229;DHT22;5671;47.936;8.716;2022-10-16T23:08:40;9.20;84.10
11229;DHT22;5671;47.936;8.716;2022-10-16T23:11:09;9.20;84.30
11229;DHT22;5671;47.936;8.716;2022-10-16T23:13:37;9.10;84.30
11229;DHT22;5671;47.936;8.716;2022-10-16T23:16:05;9.10;84.90
11229;DHT22;5671;47.936;8.716;2022-10-16T23:18:32;9.10;84.40
11229;DHT22;5671;47.936;8.716;2022-10-16T23:21:05;9.00;84.20
11229;DHT22;5671;47.936;8.716;2022-10-16T23:23:33;9.00;84.30
11229;DHT22;5671;47.936;8.716;2022-10-16T23:26:00;9.00;84.70
11229;DHT22;5671;47.936;8.716;2022-10-16T23:28:27;8.90;84.30
11229;DHT22;5671;47.936;8.716;2022-10-16T23:30:54;8.90;84.60
11229;DHT22;5671;47.936;8.716;2022-10-16T23:33:21;8.90;84.80
11229;DHT22;5671;47.936;8.716;2022-10-16T23:35:48;8.90;84.70
11229;DHT22;5671;47.936;8.716;2022-10-16T23:38:17;8.90;84.60
11229;DHT22;5671;47.936;8.716;2022-10-16T23:40:44;8.80;85.30
11229;DHT22;5671;47.936;8.716;2022-10-16T23:43:11;8.80;85.70
11229;DHT22;5671;47.936;8.716;2022-10-16T23:45:38;8.80;85.80
11229;DHT22;5671;47.936;8.716;2022-10-16T23:48:05;8.80;85.50
11229;DHT22;5671;47.936;8.716;2022-10-16T23:50:34;8.80;85.20
11229;DHT22;5671;47.936;8.716;2022-10-16T23:53:03;8.70;85.20
11229;DHT22;5671;47.936;8.716;2022-10-16T23:55:31;8.70;85.00
11229;DHT22;5671;47.936;8.716;2022-10-16T23:58:00;8.70;85.30
